createdAt,value
2023-02-25T00:00:58.469Z,989.61
2023-02-25T00:02:04.168Z,989.66
2023-02-25T00:02:59.472Z,989.72
2023-02-25T00:03:58.445Z,989.73
2023-02-25T00:04:58.476Z,989.65
2023-02-25T00:05:58.423Z,989.69
2023-02-25T00:06:58.423Z,989.68
2023-02-25T00:07:58.398Z,989.65
2023-02-25T00:08:58.396Z,989.70
2023-02-25T00:09:58.399Z,989.79
2023-02-25T00:10:58.355Z,989.87
2023-02-25T00:11:58.620Z,989.74
2023-02-25T00:13:12.203Z,989.76
2023-02-25T00:13:59.333Z,989.68
2023-02-25T00:14:58.324Z,989.73
2023-02-25T00:15:58.359Z,989.65
2023-02-25T00:16:58.438Z,989.66
2023-02-25T00:17:58.286Z,989.62
2023-02-25T00:18:58.318Z,989.55
2023-02-25T00:19:58.266Z,989.66
2023-02-25T00:20:58.252Z,989.76
2023-02-25T00:21:58.281Z,989.70
2023-02-25T00:22:58.256Z,989.73
2023-02-25T00:24:04.501Z,989.73
2023-02-25T00:24:59.209Z,989.66
2023-02-25T00:25:58.202Z,989.74
2023-02-25T00:26:58.184Z,989.71
2023-02-25T00:27:58.173Z,989.72
2023-02-25T00:28:58.204Z,989.67
2023-02-25T00:29:58.158Z,989.71
2023-02-25T00:30:58.395Z,989.75
2023-02-25T00:31:58.315Z,989.68
2023-02-25T00:32:58.157Z,989.68
2023-02-25T00:33:58.161Z,989.64
2023-02-25T00:34:58.098Z,989.68
2023-02-25T00:35:58.088Z,989.69
2023-02-25T00:36:58.193Z,989.71
2023-02-25T00:38:13.736Z,989.72
2023-02-25T00:38:59.050Z,989.60
2023-02-25T00:39:58.041Z,989.63
2023-02-25T00:40:58.047Z,989.63
2023-02-25T00:41:58.023Z,989.66
2023-02-25T00:42:58.035Z,989.67
2023-02-25T00:43:57.999Z,989.65
2023-02-25T00:44:58.005Z,989.64
2023-02-25T00:45:57.995Z,989.56
2023-02-25T00:46:57.965Z,989.57
2023-02-25T00:47:57.981Z,989.57
2023-02-25T00:48:57.997Z,989.59
2023-02-25T00:49:57.926Z,989.59
2023-02-25T00:50:57.919Z,989.64
2023-02-25T00:52:00.005Z,989.60
2023-02-25T00:52:57.895Z,989.57
2023-02-25T00:53:57.896Z,989.58
2023-02-25T00:54:57.884Z,989.55
2023-02-25T00:55:57.868Z,989.59
2023-02-25T00:56:57.879Z,989.60
2023-02-25T00:57:57.852Z,989.58
2023-02-25T00:58:57.828Z,989.55
2023-02-25T00:59:57.825Z,989.48
2023-02-25T01:00:57.833Z,989.50
2023-02-25T01:01:57.939Z,989.52
2023-02-25T01:02:57.868Z,989.52
2023-02-25T01:03:57.781Z,989.47
2023-02-25T01:04:57.763Z,989.52
2023-02-25T01:05:57.754Z,989.54
2023-02-25T01:06:57.772Z,989.48
2023-02-25T01:07:57.731Z,989.48
2023-02-25T01:08:57.720Z,989.44
2023-02-25T01:09:57.714Z,989.48
2023-02-25T01:10:57.701Z,989.46
2023-02-25T01:11:57.763Z,989.43
2023-02-25T01:12:57.676Z,989.49
2023-02-25T01:13:57.735Z,989.42
2023-02-25T01:14:57.666Z,989.44
2023-02-25T01:15:57.752Z,989.50
2023-02-25T01:16:57.658Z,989.40
2023-02-25T01:17:57.638Z,989.38
2023-02-25T01:18:57.610Z,989.39
2023-02-25T01:19:57.591Z,989.47
2023-02-25T01:20:57.607Z,989.45
2023-02-25T01:21:57.584Z,989.34
2023-02-25T01:22:57.601Z,989.39
2023-02-25T01:23:57.547Z,989.37
2023-02-25T01:24:57.559Z,989.40
2023-02-25T01:25:57.555Z,989.39
2023-02-25T01:26:57.519Z,989.36
2023-02-25T01:27:57.511Z,989.40
2023-02-25T01:28:57.495Z,989.42
2023-02-25T01:29:57.506Z,989.41
2023-02-25T01:30:57.564Z,989.40
2023-02-25T01:31:57.696Z,989.36
2023-02-25T01:32:57.541Z,989.38
2023-02-25T01:33:57.441Z,989.39
2023-02-25T01:34:57.457Z,989.36
2023-02-25T01:35:57.446Z,989.43
2023-02-25T01:36:57.418Z,989.42
2023-02-25T01:37:57.400Z,989.37
2023-02-25T01:38:57.396Z,989.37
2023-02-25T01:39:57.397Z,989.43
2023-02-25T01:40:57.392Z,989.37
2023-02-25T01:41:57.372Z,989.39
2023-02-25T01:42:57.344Z,989.35
2023-02-25T01:43:57.333Z,989.40
2023-02-25T01:44:57.342Z,989.33
2023-02-25T01:45:57.312Z,989.30
2023-02-25T01:46:57.372Z,989.34
2023-02-25T01:47:57.286Z,989.36
2023-02-25T01:48:57.314Z,989.36
2023-02-25T01:49:57.287Z,989.32
2023-02-25T01:50:57.280Z,989.35
2023-02-25T01:51:57.270Z,989.28
2023-02-25T01:52:57.248Z,989.31
2023-02-25T01:53:57.224Z,989.27
2023-02-25T01:54:57.248Z,989.35
2023-02-25T01:55:57.228Z,989.28
2023-02-25T01:56:57.195Z,989.30
2023-02-25T01:57:57.182Z,989.41
2023-02-25T01:58:57.171Z,989.35
2023-02-25T01:59:57.158Z,989.32
2023-02-25T02:00:57.196Z,989.36
2023-02-25T02:01:57.167Z,989.40
2023-02-25T02:02:57.128Z,989.38
2023-02-25T02:03:57.113Z,989.33
2023-02-25T02:04:57.142Z,989.37
2023-02-25T02:05:57.111Z,989.38
2023-02-25T02:06:57.080Z,989.35
2023-02-25T02:07:57.066Z,989.34
2023-02-25T02:08:57.057Z,989.37
2023-02-25T02:09:57.130Z,989.43
2023-02-25T02:10:57.073Z,989.27
2023-02-25T02:11:57.028Z,989.34
2023-02-25T02:12:57.015Z,989.34
2023-02-25T02:13:57.011Z,989.31
2023-02-25T02:14:56.994Z,989.29
2023-02-25T02:15:57.036Z,989.37
2023-02-25T02:16:56.981Z,989.36
2023-02-25T02:17:56.960Z,989.28
2023-02-25T02:18:56.960Z,989.29
2023-02-25T02:19:56.939Z,989.31
2023-02-25T02:20:56.980Z,989.29
2023-02-25T02:21:56.970Z,989.23
2023-02-25T02:22:56.945Z,989.26
2023-02-25T02:23:56.906Z,989.29
2023-02-25T02:24:56.878Z,989.29
2023-02-25T02:25:56.869Z,989.35
2023-02-25T02:26:56.889Z,989.30
2023-02-25T02:27:56.848Z,989.34
2023-02-25T02:28:56.840Z,989.29
2023-02-25T02:29:56.828Z,989.32
2023-02-25T02:30:56.925Z,989.36
2023-02-25T02:31:57.058Z,989.28
2023-02-25T02:32:56.799Z,989.33
2023-02-25T02:33:56.803Z,989.38
2023-02-25T02:34:56.791Z,989.32
2023-02-25T02:35:56.759Z,989.37
2023-02-25T02:36:56.790Z,989.36
2023-02-25T02:37:56.732Z,989.37
2023-02-25T02:38:56.753Z,989.37
2023-02-25T02:39:56.715Z,989.38
2023-02-25T02:40:56.703Z,989.38
2023-02-25T02:41:56.692Z,989.31
2023-02-25T02:42:56.684Z,989.38
2023-02-25T02:43:56.689Z,989.28
2023-02-25T02:44:56.672Z,989.36
2023-02-25T02:45:56.726Z,989.31
2023-02-25T02:46:56.636Z,989.32
2023-02-25T02:47:56.626Z,989.30
2023-02-25T02:48:56.646Z,989.40
2023-02-25T02:49:56.617Z,989.38
2023-02-25T02:50:56.620Z,989.40
2023-02-25T02:51:56.577Z,989.40
2023-02-25T02:52:56.601Z,989.42
2023-02-25T02:53:56.556Z,989.49
2023-02-25T02:54:56.545Z,989.41
2023-02-25T02:55:56.551Z,989.47
2023-02-25T02:56:56.532Z,989.48
2023-02-25T02:57:56.510Z,989.50
2023-02-25T02:58:57.149Z,989.52
2023-02-25T02:59:56.512Z,989.47
2023-02-25T03:00:56.603Z,989.53
2023-02-25T03:01:56.463Z,989.55
2023-02-25T03:02:56.459Z,989.58
2023-02-25T03:03:56.500Z,989.60
2023-02-25T03:04:56.478Z,989.58
2023-02-25T03:05:56.443Z,989.68
2023-02-25T03:06:56.407Z,989.62
2023-02-25T03:07:56.395Z,989.66
2023-02-25T03:08:56.406Z,989.65
2023-02-25T03:09:56.370Z,989.68
2023-02-25T03:10:56.388Z,989.67
2023-02-25T03:11:56.378Z,989.64
2023-02-25T03:12:56.336Z,989.67
2023-02-25T03:13:56.350Z,989.72
2023-02-25T03:14:56.355Z,989.74
2023-02-25T03:15:56.303Z,989.79
2023-02-25T03:16:56.353Z,989.73
2023-02-25T03:17:56.288Z,989.83
2023-02-25T03:18:56.300Z,989.80
2023-02-25T03:19:56.276Z,989.74
2023-02-25T03:20:56.257Z,989.87
2023-02-25T03:21:56.239Z,989.73
2023-02-25T03:22:56.241Z,989.86
2023-02-25T03:23:56.224Z,989.83
2023-02-25T03:24:56.263Z,989.87
2023-02-25T03:25:56.205Z,989.90
2023-02-25T03:26:56.190Z,989.94
2023-02-25T03:27:56.201Z,989.97
2023-02-25T03:28:56.201Z,989.95
2023-02-25T03:29:56.156Z,990.01
2023-02-25T03:30:56.221Z,990.03
2023-02-25T03:31:56.270Z,990.06
2023-02-25T03:32:56.139Z,990.15
2023-02-25T03:33:56.136Z,990.08
2023-02-25T03:34:56.108Z,990.09
2023-02-25T03:35:56.096Z,990.13
2023-02-25T03:36:56.085Z,990.10
2023-02-25T03:37:56.098Z,990.10
2023-02-25T03:38:56.065Z,990.11
2023-02-25T03:39:56.051Z,990.16
2023-02-25T03:40:56.061Z,990.20
2023-02-25T03:41:56.023Z,990.17
2023-02-25T03:42:56.038Z,990.19
2023-02-25T03:43:56.007Z,990.22
2023-02-25T03:44:56.002Z,990.17
2023-02-25T03:45:56.038Z,990.20
2023-02-25T03:46:55.974Z,990.14
2023-02-25T03:47:55.961Z,990.17
2023-02-25T03:48:55.955Z,990.23
2023-02-25T03:49:55.943Z,990.20
2023-02-25T03:50:55.964Z,990.30
2023-02-25T03:51:55.921Z,990.30
2023-02-25T03:52:55.912Z,990.25
2023-02-25T03:53:55.929Z,990.29
2023-02-25T03:54:55.880Z,990.21
2023-02-25T03:55:55.895Z,990.34
2023-02-25T03:56:55.888Z,990.33
2023-02-25T03:57:55.847Z,990.34
2023-02-25T03:58:55.851Z,990.33
2023-02-25T03:59:55.834Z,990.39
2023-02-25T04:00:55.841Z,990.29
2023-02-25T04:01:55.795Z,990.34
2023-02-25T04:02:55.791Z,990.40
2023-02-25T04:03:55.785Z,990.34
2023-02-25T04:04:55.806Z,990.35
2023-02-25T04:05:55.751Z,990.39
2023-02-25T04:06:55.767Z,990.39
2023-02-25T04:07:55.737Z,990.42
2023-02-25T04:08:55.739Z,990.37
2023-02-25T04:09:55.724Z,990.44
2023-02-25T04:10:55.703Z,990.51
2023-02-25T04:11:55.713Z,990.47
2023-02-25T04:12:55.723Z,990.42
2023-02-25T04:13:55.673Z,990.48
2023-02-25T04:14:55.658Z,990.50
2023-02-25T04:15:55.703Z,990.58
2023-02-25T04:16:55.656Z,990.54
2023-02-25T04:17:55.622Z,990.57
2023-02-25T04:18:55.628Z,990.62
2023-02-25T04:19:55.598Z,990.64
2023-02-25T04:20:55.585Z,990.60
2023-02-25T04:21:55.603Z,990.63
2023-02-25T04:22:55.571Z,990.61
2023-02-25T04:23:55.554Z,990.65
2023-02-25T04:24:55.545Z,990.70
2023-02-25T04:25:55.537Z,990.68
2023-02-25T04:26:55.546Z,990.69
2023-02-25T04:27:55.512Z,990.74
2023-02-25T04:28:55.524Z,990.67
2023-02-25T04:29:55.490Z,990.70
2023-02-25T04:30:55.597Z,990.82
2023-02-25T04:31:55.616Z,990.71
2023-02-25T04:32:55.458Z,990.76
2023-02-25T04:33:55.444Z,990.82
2023-02-25T04:34:55.434Z,990.79
2023-02-25T04:35:55.421Z,990.84
2023-02-25T04:36:55.432Z,990.87
2023-02-25T04:37:55.405Z,990.84
2023-02-25T04:38:55.393Z,990.92
2023-02-25T04:39:55.380Z,990.88
2023-02-25T04:40:55.376Z,990.85
2023-02-25T04:41:55.385Z,990.93
2023-02-25T04:42:55.360Z,990.94
2023-02-25T04:43:55.336Z,990.92
2023-02-25T04:44:55.348Z,990.92
2023-02-25T04:45:55.316Z,990.91
2023-02-25T04:46:55.416Z,990.92
2023-02-25T04:47:55.310Z,990.94
2023-02-25T04:48:55.285Z,990.89
2023-02-25T04:49:55.271Z,990.98
2023-02-25T04:50:55.265Z,990.98
2023-02-25T04:51:55.286Z,990.98
2023-02-25T04:52:55.268Z,990.98
2023-02-25T04:53:55.230Z,991.01
2023-02-25T04:54:55.223Z,990.95
2023-02-25T04:55:55.205Z,991.06
2023-02-25T04:56:55.219Z,991.08
2023-02-25T04:57:55.184Z,991.02
2023-02-25T04:58:55.182Z,991.07
2023-02-25T04:59:55.167Z,991.06
2023-02-25T05:00:55.181Z,991.00
2023-02-25T05:01:55.276Z,991.02
2023-02-25T05:02:55.138Z,991.06
2023-02-25T05:03:55.120Z,991.08
2023-02-25T05:04:55.186Z,991.01
2023-02-25T05:05:55.104Z,991.05
2023-02-25T05:06:55.117Z,991.02
2023-02-25T05:07:55.103Z,991.05
2023-02-25T05:08:55.089Z,991.12
2023-02-25T05:09:55.056Z,991.05
2023-02-25T05:10:55.061Z,991.10
2023-02-25T05:11:55.041Z,991.08
2023-02-25T05:12:55.033Z,991.11
2023-02-25T05:13:55.049Z,991.20
2023-02-25T05:14:55.007Z,991.16
2023-02-25T05:15:55.022Z,991.13
2023-02-25T05:16:55.008Z,991.21
2023-02-25T05:17:54.977Z,991.20
2023-02-25T05:18:55.002Z,991.10
2023-02-25T05:19:54.961Z,991.15
2023-02-25T05:20:54.941Z,991.15
2023-02-25T05:21:54.952Z,991.19
2023-02-25T05:22:54.918Z,991.26
2023-02-25T05:23:54.922Z,991.23
2023-02-25T05:24:54.904Z,991.17
2023-02-25T05:25:54.895Z,991.26
2023-02-25T05:26:54.897Z,991.22
2023-02-25T05:27:54.867Z,991.29
2023-02-25T05:28:54.856Z,991.28
2023-02-25T05:29:54.945Z,991.30
2023-02-25T05:30:54.895Z,991.33
2023-02-25T05:31:55.098Z,991.34
2023-02-25T05:32:54.980Z,991.34
2023-02-25T05:33:54.807Z,991.42
2023-02-25T05:34:54.791Z,991.35
2023-02-25T05:35:54.783Z,991.32
2023-02-25T05:36:54.785Z,991.36
2023-02-25T05:37:54.762Z,991.43
2023-02-25T05:38:54.747Z,991.36
2023-02-25T05:39:54.760Z,991.46
2023-02-25T05:40:54.732Z,991.40
2023-02-25T05:41:54.744Z,991.46
2023-02-25T05:42:54.723Z,991.46
2023-02-25T05:43:54.704Z,991.49
2023-02-25T05:44:54.683Z,991.49
2023-02-25T05:45:54.674Z,991.56
2023-02-25T05:46:54.696Z,991.47
2023-02-25T05:47:54.673Z,991.55
2023-02-25T05:48:54.671Z,991.52
2023-02-25T05:49:54.635Z,991.53
2023-02-25T05:50:54.624Z,991.62
2023-02-25T05:51:54.618Z,991.54
2023-02-25T05:52:54.620Z,991.61
2023-02-25T05:53:54.589Z,991.65
2023-02-25T05:54:54.579Z,991.56
2023-02-25T05:55:54.568Z,991.64
2023-02-25T05:56:54.553Z,991.74
2023-02-25T05:57:54.566Z,991.78
2023-02-25T05:58:54.532Z,991.74
2023-02-25T05:59:54.523Z,991.77
2023-02-25T06:00:54.513Z,991.71
2023-02-25T06:01:54.575Z,991.79
2023-02-25T06:02:54.549Z,991.79
2023-02-25T06:03:54.485Z,991.80
2023-02-25T06:04:54.492Z,991.87
2023-02-25T06:05:54.457Z,991.79
2023-02-25T06:06:54.455Z,991.76
2023-02-25T06:07:54.458Z,991.82
2023-02-25T06:08:54.426Z,991.94
2023-02-25T06:09:54.414Z,991.89
2023-02-25T06:10:54.403Z,991.94
2023-02-25T06:11:54.392Z,991.92
2023-02-25T06:12:54.402Z,992.00
2023-02-25T06:13:54.372Z,991.98
2023-02-25T06:14:54.357Z,992.01
2023-02-25T06:15:54.366Z,992.06
2023-02-25T06:16:54.389Z,992.03
2023-02-25T06:17:54.364Z,992.04
2023-02-25T06:18:54.319Z,992.08
2023-02-25T06:19:54.307Z,992.15
2023-02-25T06:20:54.313Z,992.19
2023-02-25T06:21:54.287Z,992.22
2023-02-25T06:22:54.274Z,992.25
2023-02-25T06:23:54.285Z,992.27
2023-02-25T06:24:54.249Z,992.25
2023-02-25T06:25:54.248Z,992.27
2023-02-25T06:26:54.239Z,992.30
2023-02-25T06:27:54.226Z,992.29
2023-02-25T06:28:54.236Z,992.34
2023-02-25T06:29:54.197Z,992.31
2023-02-25T06:30:54.218Z,992.45
2023-02-25T06:31:54.212Z,992.40
2023-02-25T06:32:54.285Z,992.49
2023-02-25T06:33:54.174Z,992.36
2023-02-25T06:34:54.143Z,992.50
2023-02-25T06:35:54.134Z,992.49
2023-02-25T06:36:54.142Z,992.51
2023-02-25T06:37:54.112Z,992.61
2023-02-25T06:38:54.127Z,992.67
2023-02-25T06:39:54.093Z,992.64
2023-02-25T06:40:54.081Z,992.62
2023-02-25T06:41:54.092Z,992.69
2023-02-25T06:42:54.060Z,992.72
2023-02-25T06:43:54.071Z,992.81
2023-02-25T06:44:54.029Z,992.73
2023-02-25T06:45:54.076Z,992.78
2023-02-25T06:46:54.043Z,992.73
2023-02-25T06:47:54.008Z,992.78
2023-02-25T06:48:54.154Z,992.77
2023-02-25T06:49:53.990Z,992.77
2023-02-25T06:50:53.975Z,992.86
2023-02-25T06:51:53.989Z,992.83
2023-02-25T06:52:53.977Z,992.91
2023-02-25T06:53:53.958Z,992.83
2023-02-25T06:54:53.928Z,992.93
2023-02-25T06:55:53.922Z,992.92
2023-02-25T06:56:53.938Z,992.94
2023-02-25T06:57:53.899Z,993.03
2023-02-25T06:58:53.924Z,993.00
2023-02-25T06:59:53.888Z,993.05
2023-02-25T07:00:53.926Z,993.02
2023-02-25T07:01:53.853Z,993.02
2023-02-25T07:02:53.847Z,993.02
2023-02-25T07:03:53.863Z,993.11
2023-02-25T07:04:53.862Z,993.13
2023-02-25T07:05:53.815Z,993.13
2023-02-25T07:06:53.799Z,993.13
2023-02-25T07:07:53.807Z,993.22
2023-02-25T07:08:53.796Z,993.18
2023-02-25T07:09:53.774Z,993.22
2023-02-25T07:10:53.774Z,993.29
2023-02-25T07:11:53.744Z,993.27
2023-02-25T07:12:53.729Z,993.29
2023-02-25T07:13:53.720Z,993.28
2023-02-25T07:14:53.713Z,993.32
2023-02-25T07:15:53.777Z,993.37
2023-02-25T07:16:53.935Z,993.39
2023-02-25T07:17:53.692Z,993.41
2023-02-25T07:18:53.668Z,993.42
2023-02-25T07:19:53.685Z,993.44
2023-02-25T07:20:53.668Z,993.43
2023-02-25T07:21:53.658Z,993.46
2023-02-25T07:22:53.629Z,993.41
2023-02-25T07:23:53.622Z,993.51
2023-02-25T07:24:53.668Z,993.52
2023-02-25T07:25:53.627Z,993.54
2023-02-25T07:26:53.584Z,993.57
2023-02-25T07:27:53.581Z,993.60
2023-02-25T07:28:53.561Z,993.51
2023-02-25T07:29:53.557Z,993.61
2023-02-25T07:30:53.683Z,993.66
2023-02-25T07:31:53.680Z,993.60
2023-02-25T07:32:53.573Z,993.60
2023-02-25T07:33:53.527Z,993.69
2023-02-25T07:34:53.538Z,993.68
2023-02-25T07:35:53.490Z,993.79
2023-02-25T07:36:53.481Z,993.83
2023-02-25T07:37:53.473Z,993.71
2023-02-25T07:38:53.489Z,993.83
2023-02-25T07:39:53.462Z,993.83
2023-02-25T07:40:53.471Z,993.86
2023-02-25T07:41:53.432Z,993.87
2023-02-25T07:42:53.429Z,993.84
2023-02-25T07:43:53.432Z,993.84
2023-02-25T07:44:53.394Z,993.92
2023-02-25T07:45:53.414Z,993.92
2023-02-25T07:46:53.372Z,993.91
2023-02-25T07:47:53.369Z,993.98
2023-02-25T07:48:53.380Z,993.92
2023-02-25T07:49:53.342Z,993.95
2023-02-25T07:50:53.338Z,993.96
2023-02-25T07:51:53.322Z,993.97
2023-02-25T07:52:53.301Z,994.01
2023-02-25T07:53:53.326Z,994.07
2023-02-25T07:54:53.286Z,993.99
2023-02-25T07:55:53.281Z,994.06
2023-02-25T07:56:53.285Z,994.09
2023-02-25T07:57:53.264Z,994.04
2023-02-25T07:58:53.272Z,993.98
2023-02-25T07:59:53.241Z,994.13
2023-02-25T08:00:53.218Z,994.07
2023-02-25T08:01:53.223Z,994.07
2023-02-25T08:02:53.289Z,994.10
2023-02-25T08:03:53.234Z,994.11
2023-02-25T08:04:53.256Z,994.15
2023-02-25T08:05:53.172Z,994.15
2023-02-25T08:06:53.160Z,994.14
2023-02-25T08:07:53.149Z,994.16
2023-02-25T08:08:53.139Z,994.19
2023-02-25T08:09:53.154Z,994.20
2023-02-25T08:10:53.117Z,994.23
2023-02-25T08:11:53.109Z,994.11
2023-02-25T08:12:53.109Z,994.17
2023-02-25T08:13:53.129Z,994.26
2023-02-25T08:14:53.100Z,994.24
2023-02-25T08:15:53.168Z,994.15
2023-02-25T08:16:53.047Z,994.30
2023-02-25T08:17:53.043Z,994.23
2023-02-25T08:18:53.104Z,994.30
2023-02-25T08:19:53.052Z,994.33
2023-02-25T08:20:53.013Z,994.40
2023-02-25T08:21:53.004Z,994.43
2023-02-25T08:22:52.990Z,994.41
2023-02-25T08:23:52.997Z,994.40
2023-02-25T08:24:52.984Z,994.43
2023-02-25T08:25:52.957Z,994.41
2023-02-25T08:26:52.942Z,994.43
2023-02-25T08:27:52.945Z,994.50
2023-02-25T08:28:52.955Z,994.52
2023-02-25T08:29:52.944Z,994.49
2023-02-25T08:30:52.961Z,994.53
2023-02-25T08:31:53.227Z,994.55
2023-02-25T08:32:53.057Z,994.58
2023-02-25T08:33:53.171Z,994.61
2023-02-25T08:34:52.915Z,994.56
2023-02-25T08:35:52.857Z,994.62
2023-02-25T08:36:52.830Z,994.61
2023-02-25T08:37:52.821Z,994.61
2023-02-25T08:38:52.817Z,994.63
2023-02-25T08:39:52.819Z,994.62
2023-02-25T08:40:52.804Z,994.65
2023-02-25T08:41:52.773Z,994.70
2023-02-25T08:42:52.784Z,994.72
2023-02-25T08:43:52.756Z,994.69
2023-02-25T08:44:52.773Z,994.76
2023-02-25T08:45:52.760Z,994.78
2023-02-25T08:46:52.772Z,994.83
2023-02-25T08:47:52.710Z,994.80
2023-02-25T08:48:52.699Z,994.74
2023-02-25T08:49:52.691Z,994.84
2023-02-25T08:50:52.699Z,994.87
2023-02-25T08:51:52.689Z,994.83
2023-02-25T08:52:52.651Z,994.82
2023-02-25T08:53:52.644Z,994.89
2023-02-25T08:54:52.627Z,994.87
2023-02-25T08:55:52.626Z,994.93
2023-02-25T08:56:52.627Z,994.93
2023-02-25T08:57:52.596Z,994.93
2023-02-25T08:58:52.582Z,994.97
2023-02-25T08:59:52.575Z,994.96
2023-02-25T09:00:52.658Z,995.06
2023-02-25T09:01:52.577Z,995.10
2023-02-25T09:02:52.537Z,995.06
2023-02-25T09:03:52.564Z,995.12
2023-02-25T09:04:52.596Z,995.18
2023-02-25T09:05:52.532Z,995.17
2023-02-25T09:06:52.519Z,995.20
2023-02-25T09:07:52.488Z,995.20
2023-02-25T09:08:52.478Z,995.23
2023-02-25T09:09:52.460Z,995.28
2023-02-25T09:10:52.463Z,995.23
2023-02-25T09:11:52.478Z,995.30
2023-02-25T09:12:52.426Z,995.31
2023-02-25T09:13:52.414Z,995.27
2023-02-25T09:14:52.396Z,995.28
2023-02-25T09:15:52.396Z,995.36
2023-02-25T09:16:52.490Z,995.40
2023-02-25T09:17:52.377Z,995.35
2023-02-25T09:18:52.353Z,995.41
2023-02-25T09:19:52.357Z,995.40
2023-02-25T09:20:52.335Z,995.41
2023-02-25T09:21:52.399Z,995.42
2023-02-25T09:22:52.321Z,995.49
2023-02-25T09:23:52.329Z,995.44
2023-02-25T09:24:52.299Z,995.50
2023-02-25T09:25:52.281Z,995.43
2023-02-25T09:26:52.290Z,995.44
2023-02-25T09:27:52.262Z,995.47
2023-02-25T09:28:52.268Z,995.47
2023-02-25T09:29:52.239Z,995.52
2023-02-25T09:30:52.282Z,995.50
2023-02-25T09:31:52.526Z,995.55
2023-02-25T09:32:52.374Z,995.59
2023-02-25T09:33:52.221Z,995.62
2023-02-25T09:34:52.202Z,995.66
2023-02-25T09:35:52.173Z,995.69
2023-02-25T09:36:52.165Z,995.71
2023-02-25T09:37:52.145Z,995.73
2023-02-25T09:38:52.154Z,995.70
2023-02-25T09:39:52.143Z,995.71
2023-02-25T09:40:52.123Z,995.72
2023-02-25T09:41:54.566Z,995.77
2023-02-25T09:42:52.099Z,995.77
2023-02-25T09:43:52.080Z,995.84
2023-02-25T09:44:52.092Z,995.90
2023-02-25T09:45:52.113Z,995.77
2023-02-25T09:46:52.051Z,995.87
2023-02-25T09:47:52.118Z,995.85
2023-02-25T09:48:52.056Z,995.84
2023-02-25T09:49:52.041Z,995.89
2023-02-25T09:50:52.021Z,995.89
2023-02-25T09:51:51.990Z,995.87
2023-02-25T09:52:51.999Z,995.93
2023-02-25T09:53:51.971Z,995.98
2023-02-25T09:54:51.986Z,995.95
2023-02-25T09:55:51.954Z,996.04
2023-02-25T09:56:51.945Z,996.02
2023-02-25T09:57:51.927Z,996.03
2023-02-25T09:58:51.924Z,996.07
2023-02-25T09:59:51.932Z,996.07
2023-02-25T10:00:51.955Z,996.12
2023-02-25T10:01:51.890Z,996.13
2023-02-25T10:02:51.956Z,996.10
2023-02-25T10:03:51.861Z,996.17
2023-02-25T10:04:51.913Z,996.22
2023-02-25T10:05:51.841Z,996.20
2023-02-25T10:06:51.835Z,996.16
2023-02-25T10:07:51.817Z,996.20
2023-02-25T10:08:51.816Z,996.26
2023-02-25T10:09:51.794Z,996.29
2023-02-25T10:10:51.811Z,996.21
2023-02-25T10:11:51.771Z,996.23
2023-02-25T10:12:51.766Z,996.21
2023-02-25T10:13:51.751Z,996.29
2023-02-25T10:14:51.746Z,996.24
2023-02-25T10:15:53.103Z,996.38
2023-02-25T10:16:51.762Z,996.36
2023-02-25T10:17:51.716Z,996.32
2023-02-25T10:18:51.706Z,996.45
2023-02-25T10:19:51.689Z,996.42
2023-02-25T10:20:51.705Z,996.39
2023-02-25T10:21:51.691Z,996.39
2023-02-25T10:22:51.671Z,996.41
2023-02-25T10:23:51.641Z,996.50
2023-02-25T10:24:51.641Z,996.57
2023-02-25T10:25:51.624Z,996.52
2023-02-25T10:26:51.644Z,996.51
2023-02-25T10:27:51.625Z,996.62
2023-02-25T10:28:51.589Z,996.58
2023-02-25T10:29:51.571Z,996.59
2023-02-25T10:30:51.683Z,996.62
2023-02-25T10:31:51.744Z,996.68
2023-02-25T10:32:51.616Z,996.58
2023-02-25T10:33:51.541Z,996.74
2023-02-25T10:34:51.532Z,996.74
2023-02-25T10:35:51.533Z,996.75
2023-02-25T10:36:51.550Z,996.73
2023-02-25T10:37:51.488Z,996.75
2023-02-25T10:38:51.475Z,996.71
2023-02-25T10:39:51.463Z,996.76
2023-02-25T10:40:51.477Z,996.76
2023-02-25T10:41:51.447Z,996.72
2023-02-25T10:42:51.438Z,996.71
2023-02-25T10:43:51.439Z,996.78
2023-02-25T10:44:51.420Z,996.77
2023-02-25T10:45:51.508Z,996.75
2023-02-25T10:46:51.394Z,996.80
2023-02-25T10:47:51.380Z,996.72
2023-02-25T10:48:51.372Z,996.82
2023-02-25T10:49:51.355Z,996.81
2023-02-25T10:50:51.351Z,996.81
2023-02-25T10:51:51.357Z,996.84
2023-02-25T10:52:51.350Z,996.85
2023-02-25T10:53:51.316Z,996.79
2023-02-25T10:54:51.308Z,996.85
2023-02-25T10:55:51.294Z,996.84
2023-02-25T10:56:51.304Z,996.84
2023-02-25T10:57:51.280Z,996.87
2023-02-25T10:58:51.273Z,996.87
2023-02-25T10:59:51.248Z,996.88
2023-02-25T11:00:51.242Z,996.87
2023-02-25T11:01:51.372Z,996.90
2023-02-25T11:02:51.319Z,996.93
2023-02-25T11:03:51.209Z,996.93
2023-02-25T11:04:51.199Z,996.91
2023-02-25T11:05:51.180Z,996.94
2023-02-25T11:06:51.198Z,997.00
2023-02-25T11:07:51.174Z,997.03
2023-02-25T11:08:51.175Z,996.99
2023-02-25T11:09:51.161Z,996.98
2023-02-25T11:10:51.128Z,997.10
2023-02-25T11:11:51.152Z,996.99
2023-02-25T11:12:51.112Z,997.06
2023-02-25T11:13:51.095Z,997.10
2023-02-25T11:14:51.089Z,997.12
2023-02-25T11:15:51.131Z,997.12
2023-02-25T11:16:51.064Z,997.19
2023-02-25T11:17:51.074Z,997.17
2023-02-25T11:18:51.046Z,997.28
2023-02-25T11:19:51.044Z,997.20
2023-02-25T11:20:51.024Z,997.24
2023-02-25T11:21:51.021Z,997.30
2023-02-25T11:22:51.030Z,997.25
2023-02-25T11:23:50.986Z,997.28
2023-02-25T11:24:51.004Z,997.28
2023-02-25T11:25:50.972Z,997.22
2023-02-25T11:26:50.961Z,997.24
2023-02-25T11:27:50.969Z,997.23
2023-02-25T11:28:50.939Z,997.25
2023-02-25T11:29:50.929Z,997.31
2023-02-25T11:30:51.032Z,997.29
2023-02-25T11:31:51.187Z,997.24
2023-02-25T11:32:50.954Z,997.29
2023-02-25T11:33:50.911Z,997.39
2023-02-25T11:34:50.871Z,997.34
2023-02-25T11:35:50.855Z,997.38
2023-02-25T11:36:51.349Z,997.42
2023-02-25T11:37:50.839Z,997.41
2023-02-25T11:38:50.828Z,997.40
2023-02-25T11:39:50.833Z,997.41
2023-02-25T11:40:50.836Z,997.46
2023-02-25T11:41:50.824Z,997.43
2023-02-25T11:42:50.783Z,997.34
2023-02-25T11:43:50.770Z,997.45
2023-02-25T11:44:50.785Z,997.51
2023-02-25T11:45:50.742Z,997.46
2023-02-25T11:46:50.799Z,997.53
2023-02-25T11:47:50.735Z,997.49
2023-02-25T11:48:50.720Z,997.54
2023-02-25T11:49:50.732Z,997.60
2023-02-25T11:50:50.698Z,997.51
2023-02-25T11:51:50.706Z,997.60
2023-02-25T11:52:50.677Z,997.65
2023-02-25T11:53:50.713Z,997.64
2023-02-25T11:54:50.700Z,997.67
2023-02-25T11:55:50.635Z,997.67
2023-02-25T11:56:50.652Z,997.72
2023-02-25T11:57:50.620Z,997.75
2023-02-25T11:58:50.620Z,997.76
2023-02-25T11:59:50.597Z,997.78
2023-02-25T12:00:50.632Z,997.78
2023-02-25T12:01:50.579Z,997.84
2023-02-25T12:02:50.599Z,997.79
2023-02-25T12:03:50.550Z,997.83
2023-02-25T12:04:50.553Z,997.82
2023-02-25T12:05:50.624Z,997.98
2023-02-25T12:06:50.520Z,997.96
2023-02-25T12:08:05.246Z,998.01
2023-02-25T12:08:51.511Z,997.99
2023-02-25T12:09:50.487Z,998.03
2023-02-25T12:10:50.496Z,998.03
2023-02-25T12:11:50.462Z,998.01
2023-02-25T12:12:50.484Z,998.03
2023-02-25T12:13:50.552Z,997.99
2023-02-25T12:14:50.441Z,997.99
2023-02-25T12:15:50.492Z,998.06
2023-02-25T12:16:50.405Z,998.07
2023-02-25T12:17:50.400Z,998.06
2023-02-25T12:18:50.403Z,998.18
2023-02-25T12:19:50.374Z,998.07
2023-02-25T12:20:50.447Z,998.11
2023-02-25T12:21:50.356Z,998.08
2023-02-25T12:22:50.359Z,998.11
2023-02-25T12:23:50.332Z,998.10
2023-02-25T12:24:50.327Z,998.09
2023-02-25T12:25:50.334Z,998.12
2023-02-25T12:26:50.334Z,998.14
2023-02-25T12:27:50.297Z,998.16
2023-02-25T12:28:50.302Z,998.18